createdAt,value
2023-09-05T00:01:58.762Z,19.16
2023-09-05T00:04:55.246Z,19.08
2023-09-05T00:07:51.886Z,19.09
2023-09-05T00:10:48.370Z,19.13
2023-09-05T00:13:44.954Z,19.34
2023-09-05T00:16:40.556Z,19.26
2023-09-05T00:19:36.097Z,19.04
2023-09-05T00:22:31.661Z,19
2023-09-05T00:25:27.168Z,18.8
2023-09-05T00:28:24.761Z,19.09
2023-09-05T00:31:20.393Z,19.35
2023-09-05T00:34:16.920Z,19.12
2023-09-05T00:37:16.410Z,19.37
2023-09-05T00:40:13.009Z,18.87
2023-09-05T00:43:08.551Z,18.94
2023-09-05T00:46:07.201Z,18.89
2023-09-05T00:49:03.652Z,18.98
2023-09-05T00:52:01.224Z,18.63
2023-09-05T00:54:57.783Z,18.9
2023-09-05T00:57:56.317Z,18.93
2023-09-05T01:00:52.922Z,18.82
2023-09-05T01:03:48.420Z,18.91
2023-09-05T01:06:53.974Z,19.1
2023-09-05T01:09:58.593Z,18.92
2023-09-05T01:12:58.035Z,18.7
2023-09-05T01:15:54.675Z,18.55
2023-09-05T01:18:50.205Z,18.52
2023-09-05T01:21:56.716Z,18.58
2023-09-05T01:24:54.329Z,18.49
2023-09-05T01:27:52.838Z,18.57
2023-09-05T01:30:48.383Z,18.38
2023-09-05T01:33:45.966Z,18.41
2023-09-05T01:36:41.504Z,18.66
2023-09-05T01:39:38.147Z,18.52
2023-09-05T01:42:33.638Z,18.8
2023-09-05T01:45:31.259Z,18.84
2023-09-05T01:48:26.760Z,18.6
2023-09-05T01:51:22.299Z,18.7
2023-09-05T01:54:18.883Z,18.58
2023-09-05T01:57:14.427Z,18.85
2023-09-05T02:00:12.020Z,18.82
2023-09-05T02:03:07.577Z,18.54
2023-09-05T02:06:03.152Z,18.81
2023-09-05T02:08:59.689Z,18.76
2023-09-05T02:11:55.245Z,18.57
2023-09-05T02:14:50.862Z,18.46
2023-09-05T02:17:48.434Z,18.62
2023-09-05T02:20:45.893Z,18.12
2023-09-05T02:23:41.457Z,18.14
2023-09-05T02:26:38.050Z,18.21
2023-09-05T02:29:33.674Z,18.08
2023-09-05T02:32:30.169Z,18.19
2023-09-05T02:35:26.733Z,17.97
2023-09-05T02:38:23.284Z,17.97
2023-09-05T02:41:19.820Z,17.86
2023-09-05T02:44:16.398Z,17.86
2023-09-05T02:47:12.949Z,18.04
2023-09-05T02:50:09.525Z,17.89
2023-09-05T02:53:06.083Z,17.75
2023-09-05T02:56:02.644Z,17.83
2023-09-05T02:59:00.182Z,17.95
2023-09-05T03:01:55.784Z,18
2023-09-05T03:04:52.377Z,17.84
2023-09-05T03:07:49.874Z,18.18
2023-09-05T03:10:49.432Z,18.05
2023-09-05T03:13:46.009Z,17.96
2023-09-05T03:16:41.540Z,18.03
2023-09-05T03:19:38.108Z,18.14
2023-09-05T03:22:33.616Z,17.78
2023-09-05T03:25:29.199Z,17.98
2023-09-05T03:28:24.769Z,18.01
2023-09-05T03:31:20.495Z,17.79
2023-09-05T03:34:15.929Z,17.99
2023-09-05T03:37:11.444Z,17.84
2023-09-05T03:40:08.059Z,18.02
2023-09-05T03:43:04.628Z,18.14
2023-09-05T03:46:00.207Z,18.02
2023-09-05T03:48:57.830Z,17.95
2023-09-05T03:51:53.302Z,17.89
2023-09-05T03:54:49.818Z,17.78
2023-09-05T03:57:45.382Z,17.56
2023-09-05T04:00:42.024Z,17.79
2023-09-05T04:03:37.634Z,17.88
2023-09-05T04:06:33.084Z,17.71
2023-09-05T04:09:28.639Z,17.96
2023-09-05T04:12:24.238Z,17.92
2023-09-05T04:15:22.780Z,17.58
2023-09-05T04:18:20.316Z,17.28
2023-09-05T04:21:15.878Z,17.58
2023-09-05T04:24:11.444Z,18
2023-09-05T04:27:07.005Z,17.8
2023-09-05T04:30:04.590Z,18.11
2023-09-05T04:33:04.147Z,17.95
2023-09-05T04:35:59.687Z,17.94
2023-09-05T04:38:55.217Z,17.77
2023-09-05T04:41:52.777Z,17.41
2023-09-05T04:44:51.345Z,17.51
2023-09-05T04:47:50.920Z,17.56
2023-09-05T04:50:46.462Z,17.7
2023-09-05T04:53:42.999Z,17.51
2023-09-05T04:56:38.562Z,17.69
2023-09-05T04:59:34.120Z,17.46
2023-09-05T05:02:32.670Z,17.67
2023-09-05T05:05:28.240Z,17.78
2023-09-05T05:08:24.174Z,17.78
2023-09-05T05:11:19.536Z,17.94
2023-09-05T05:14:14.940Z,17.76
2023-09-05T05:17:13.487Z,17.89
2023-09-05T05:20:10.056Z,17.92
2023-09-05T05:23:07.661Z,18.03
2023-09-05T05:26:03.170Z,18.19
2023-09-05T05:28:58.681Z,17.95
2023-09-05T05:31:55.264Z,18.33
2023-09-05T05:34:50.842Z,18.44
2023-09-05T05:37:46.416Z,18.39
2023-09-05T05:40:42.972Z,18.57
2023-09-05T05:43:39.537Z,18.74
2023-09-05T05:46:35.110Z,19
2023-09-05T05:49:31.649Z,18.75
2023-09-05T05:52:29.186Z,19
2023-09-05T05:55:24.789Z,19.18
2023-09-05T05:58:20.343Z,19.39
2023-09-05T06:01:18.915Z,19.6
2023-09-05T06:04:16.506Z,19.4
2023-09-05T06:07:13.003Z,19.22
2023-09-05T06:10:09.549Z,19.25
2023-09-05T06:13:06.119Z,19.53
2023-09-05T06:16:01.671Z,19.4
2023-09-05T06:18:57.249Z,19.51
2023-09-05T06:21:52.807Z,20.03
2023-09-05T06:24:50.367Z,19.94
2023-09-05T06:27:45.959Z,19.95
2023-09-05T06:30:43.505Z,20.04
2023-09-05T06:33:39.067Z,20.15
2023-09-05T06:36:39.882Z,20.15
2023-09-05T06:39:37.144Z,20.16
2023-09-05T06:42:32.721Z,20.4
2023-09-05T06:45:28.306Z,20.51
2023-09-05T06:48:24.942Z,20.68
2023-09-05T06:51:20.434Z,20.83
2023-09-05T06:54:15.976Z,21.09
2023-09-05T06:57:11.545Z,21.11
2023-09-05T07:00:09.072Z,21.24
2023-09-05T07:03:06.647Z,21.18
2023-09-05T07:06:07.302Z,21.27
2023-09-05T07:09:04.761Z,21.36
2023-09-05T07:12:01.314Z,21.43
2023-09-05T07:14:56.850Z,21.48
2023-09-05T07:17:53.461Z,21.74
2023-09-05T07:20:49.997Z,21.76
2023-09-05T07:23:45.550Z,21.99
2023-09-05T07:26:42.106Z,22.03
2023-09-05T07:29:37.675Z,22.11
2023-09-05T07:32:34.221Z,22.01
2023-09-05T07:35:29.772Z,21.95
2023-09-05T07:38:25.664Z,22.1
2023-09-05T07:41:21.893Z,22.32
2023-09-05T07:44:20.629Z,22.21
2023-09-05T07:47:16.991Z,22.36
2023-09-05T07:50:13.563Z,22.52
2023-09-05T07:53:09.189Z,22.61
2023-09-05T07:56:05.772Z,22.83
2023-09-05T07:59:01.264Z,23.08
2023-09-05T08:01:58.820Z,23.2
2023-09-05T08:04:57.378Z,23.16
2023-09-05T08:07:52.938Z,23.19
2023-09-05T08:10:50.509Z,23.34
2023-09-05T08:13:47.155Z,23.36
2023-09-05T08:16:43.604Z,23.28
2023-09-05T08:19:41.174Z,23.35
2023-09-05T08:22:39.873Z,23.47
2023-09-05T08:25:36.293Z,23.7
2023-09-05T08:28:33.835Z,23.84
2023-09-05T08:31:33.441Z,23.8
2023-09-05T08:34:30.068Z,24
2023-09-05T08:37:26.491Z,23.83
2023-09-05T08:40:24.066Z,24.14
2023-09-05T08:43:21.668Z,24.26
2023-09-05T08:46:19.278Z,24.32
2023-09-05T08:49:14.731Z,24.29
2023-09-05T08:52:16.758Z,24.36
2023-09-05T08:55:15.823Z,24.31
2023-09-05T08:58:12.412Z,24.53
2023-09-05T09:01:08.034Z,24.46
2023-09-05T09:04:04.535Z,24.9
2023-09-05T09:07:01.073Z,24.63
2023-09-05T09:10:17.595Z,24.77
2023-09-05T09:13:15.125Z,24.92
2023-09-05T09:16:17.719Z,25.48
2023-09-05T09:19:16.957Z,25.5
2023-09-05T09:22:12.870Z,25.43
2023-09-05T09:25:13.381Z,25.83
2023-09-05T09:28:08.901Z,26.11
2023-09-05T09:31:06.509Z,26.36
2023-09-05T09:34:07.030Z,26.88
2023-09-05T09:37:04.581Z,26.25
2023-09-05T09:40:05.124Z,26.44
2023-09-05T09:43:01.651Z,26.58
2023-09-05T09:46:00.323Z,26.53
2023-09-05T09:49:00.777Z,26.6
2023-09-05T09:52:04.332Z,26.76
2023-09-05T09:55:03.892Z,27.16
2023-09-05T09:58:05.406Z,27.33
2023-09-05T10:01:05.000Z,27.25
2023-09-05T10:04:02.553Z,27.14
2023-09-05T10:07:00.182Z,27.41
2023-09-05T10:09:57.658Z,27.28
2023-09-05T10:12:57.233Z,27.39
2023-09-05T10:15:54.801Z,27.73
2023-09-05T10:18:51.414Z,28.18
2023-09-05T10:21:50.879Z,28.29
2023-09-05T10:24:49.506Z,28.7
2023-09-05T10:27:44.984Z,28.7
2023-09-05T10:30:47.534Z,29.09
2023-09-05T10:33:45.092Z,29.31
2023-09-05T10:36:46.676Z,29.26
2023-09-05T10:39:55.172Z,29.91
2023-09-05T10:42:55.734Z,29.55
2023-09-05T10:45:57.339Z,29.7
2023-09-05T10:49:02.764Z,29.88
2023-09-05T10:52:08.354Z,29.96
2023-09-05T10:55:09.889Z,29.8
2023-09-05T10:58:20.423Z,30.28
2023-09-05T11:01:29.940Z,30.01
2023-09-05T11:04:28.549Z,30.71
2023-09-05T11:07:32.048Z,30.86
2023-09-05T11:10:29.615Z,30.94
2023-09-05T11:13:27.413Z,31.2
2023-09-05T11:16:28.839Z,31.18
2023-09-05T11:19:38.267Z,31.31
2023-09-05T11:22:42.196Z,31.91
2023-09-05T11:25:42.423Z,32.49
2023-09-05T11:28:38.920Z,32.38
2023-09-05T11:31:35.546Z,31.84
2023-09-05T11:34:30.985Z,32.35
2023-09-05T11:37:29.556Z,32.91
2023-09-05T11:40:27.141Z,33.08
2023-09-05T11:43:29.816Z,31.78
2023-09-05T11:46:27.184Z,33.07
2023-09-05T11:49:23.781Z,32.3
2023-09-05T11:52:20.372Z,29.95
2023-09-05T11:55:17.906Z,32.35
2023-09-05T11:58:16.450Z,33.69
2023-09-05T12:01:21.039Z,34.21
2023-09-05T12:04:17.689Z,33.67
2023-09-05T12:07:13.090Z,32.81
2023-09-05T12:10:10.792Z,34.09
2023-09-05T12:13:07.217Z,34.96
2023-09-05T12:16:06.754Z,34.8
2023-09-05T12:19:03.339Z,34.89
2023-09-05T12:22:03.898Z,35.89
2023-09-05T12:25:09.416Z,36.31
2023-09-05T12:28:16.942Z,35.7
2023-09-05T12:31:18.662Z,33.31
2023-09-05T12:34:15.056Z,32.33
2023-09-05T12:37:10.675Z,30.99
2023-09-05T12:40:08.256Z,33.64
2023-09-05T12:43:04.719Z,34.91
2023-09-05T12:46:01.503Z,34.74
2023-09-05T12:48:59.125Z,36.08
2023-09-05T12:51:58.379Z,36.54
2023-09-05T12:54:54.967Z,37.05
2023-09-05T12:57:50.510Z,37.23
2023-09-05T13:00:48.066Z,37.28
2023-09-05T13:03:43.643Z,36.78
2023-09-05T13:06:43.213Z,35.72
2023-09-05T13:09:38.731Z,33.11
2023-09-05T13:12:35.322Z,32.27
2023-09-05T13:15:31.903Z,32.55
2023-09-05T13:18:28.580Z,31.87
2023-09-05T13:21:26.019Z,31.54
2023-09-05T13:24:21.564Z,31.86
2023-09-05T13:27:19.121Z,33.53
2023-09-05T13:30:15.625Z,36.09
2023-09-05T13:33:12.440Z,36.84
2023-09-05T13:36:08.879Z,37.09
2023-09-05T13:39:04.437Z,37.08
2023-09-05T13:42:01.957Z,38.65
2023-09-05T13:44:57.465Z,38.65
2023-09-05T13:47:53.090Z,40.01
2023-09-05T13:50:54.628Z,40.25
2023-09-05T13:53:53.172Z,40.25
2023-09-05T13:56:49.752Z,41.48
2023-09-05T13:59:46.416Z,42.01
2023-09-05T14:02:42.827Z,39.3
2023-09-05T14:05:40.400Z,38.91
2023-09-05T14:08:35.962Z,40.26
2023-09-05T14:11:31.516Z,39.84
2023-09-05T14:14:28.037Z,41.18
2023-09-05T14:17:26.653Z,40.2
2023-09-05T14:20:25.205Z,38.58
2023-09-05T14:23:20.730Z,37.19
2023-09-05T14:26:16.253Z,36.58
2023-09-05T14:29:14.840Z,35.93
2023-09-05T14:32:10.489Z,36.71
2023-09-05T14:35:06.961Z,37.01
2023-09-05T14:38:02.501Z,39.39
2023-09-05T14:40:59.076Z,40.23
2023-09-05T14:43:56.733Z,38.79
2023-09-05T14:46:52.205Z,39.28
2023-09-05T14:49:47.751Z,38.24
2023-09-05T14:52:43.332Z,39.29
2023-09-05T14:55:39.886Z,40.32
2023-09-05T14:58:35.426Z,41.47
2023-09-05T15:01:31.142Z,42.07
2023-09-05T15:04:26.672Z,40.45
2023-09-05T15:07:22.153Z,41.93
2023-09-05T15:10:18.741Z,42.83
2023-09-05T15:13:14.221Z,43.02
2023-09-05T15:16:10.989Z,44
2023-09-05T15:19:08.468Z,43.94
2023-09-05T15:22:04.902Z,44.58
2023-09-05T15:25:05.462Z,44.29
2023-09-05T15:28:07.018Z,44.34
2023-09-05T15:31:05.582Z,44.47
2023-09-05T15:34:02.334Z,45.06
2023-09-05T15:36:57.712Z,44.03
2023-09-05T15:39:53.212Z,41.87
2023-09-05T15:42:48.840Z,40.85
2023-09-05T15:45:47.548Z,40.62
2023-09-05T15:48:44.003Z,41.6
2023-09-05T15:51:44.624Z,43
2023-09-05T15:54:43.319Z,42.71
2023-09-05T15:57:40.805Z,42.95
2023-09-05T16:00:37.228Z,42.71
2023-09-05T16:03:33.843Z,43.42
2023-09-05T16:06:31.294Z,43.03
2023-09-05T16:09:26.848Z,43.72
2023-09-05T16:12:24.407Z,43.71
2023-09-05T16:15:20.009Z,43.98
2023-09-05T16:18:16.669Z,44.13
2023-09-05T16:21:13.194Z,44.12
2023-09-05T16:24:08.708Z,43.84
2023-09-05T16:27:06.219Z,43.53
2023-09-05T16:30:01.808Z,43.01
2023-09-05T16:32:57.360Z,42.46
2023-09-05T16:35:59.918Z,41.8
2023-09-05T16:38:56.423Z,40.89
2023-09-05T16:41:51.980Z,39.37
2023-09-05T16:44:47.551Z,37.36
2023-09-05T16:47:43.144Z,35.91
2023-09-05T16:50:41.457Z,34.81
2023-09-05T16:53:37.183Z,34.16
2023-09-05T16:56:33.795Z,33.55
2023-09-05T16:59:32.344Z,33.02
2023-09-05T17:02:27.957Z,32.51
2023-09-05T17:05:23.453Z,31.86
2023-09-05T17:08:19.044Z,31.19
2023-09-05T17:11:20.556Z,30.63
2023-09-05T17:14:17.158Z,30.34
2023-09-05T17:17:13.685Z,30.02
2023-09-05T17:20:10.241Z,29.71
2023-09-05T17:23:07.806Z,29.41
2023-09-05T17:26:04.359Z,29.02
2023-09-05T17:28:59.913Z,28.9
2023-09-05T17:31:56.489Z,28.39
2023-09-05T17:34:53.055Z,28.43
2023-09-05T17:37:51.583Z,28.05
2023-09-05T17:40:49.149Z,28.25
2023-09-05T17:43:44.759Z,28.24
2023-09-05T17:46:40.346Z,28.09
2023-09-05T17:49:35.838Z,27.92
2023-09-05T17:52:34.501Z,27.74
2023-09-05T17:55:29.942Z,27.55
2023-09-05T17:58:26.899Z,27.34
2023-09-05T18:01:23.112Z,27.12
2023-09-05T18:04:19.788Z,27.07
2023-09-05T18:07:19.152Z,26.9
2023-09-05T18:10:16.800Z,26.73
2023-09-05T18:13:14.415Z,26.57
2023-09-05T18:16:12.904Z,26.45
2023-09-05T18:19:08.558Z,26.31
2023-09-05T18:22:08.009Z,26.17
2023-09-05T18:25:09.612Z,26.06
2023-09-05T18:28:05.864Z,25.88
2023-09-05T18:31:04.682Z,25.67
2023-09-05T18:34:00.291Z,25.77
2023-09-05T18:36:55.770Z,25.59
2023-09-05T18:39:51.331Z,25.55
2023-09-05T18:42:46.930Z,25.52
2023-09-05T18:45:43.612Z,25.41
2023-09-05T18:48:40.024Z,25.22
2023-09-05T18:51:40.605Z,25.11
2023-09-05T18:54:40.420Z,24.89
2023-09-05T18:57:36.736Z,24.83
2023-09-05T19:00:32.316Z,24.9
2023-09-05T19:03:27.917Z,24.89
2023-09-05T19:06:24.378Z,24.81
2023-09-05T19:09:24.960Z,24.7
2023-09-05T19:12:20.460Z,24.59
2023-09-05T19:15:16.060Z,24.51
2023-09-05T19:18:12.825Z,24.43
2023-09-05T19:21:10.150Z,24.35
2023-09-05T19:24:14.480Z,24.35
2023-09-05T19:27:11.250Z,24.03
2023-09-05T19:30:07.810Z,24.1
2023-09-05T19:33:04.477Z,24.05
2023-09-05T19:36:01.904Z,23.99
2023-09-05T19:38:57.469Z,24.01
2023-09-05T19:41:53.051Z,24.06
2023-09-05T19:44:49.652Z,23.94
2023-09-05T19:47:45.171Z,23.85
2023-09-05T19:50:42.788Z,23.75
2023-09-05T19:53:40.252Z,23.62
2023-09-05T19:56:36.916Z,23.58
2023-09-05T19:59:32.429Z,23.4
2023-09-05T20:02:29.032Z,23.4
2023-09-05T20:05:24.562Z,23.38
2023-09-05T20:08:25.246Z,23.1
2023-09-05T20:11:23.663Z,22.8
2023-09-05T20:14:19.150Z,22.99
2023-09-05T20:17:14.802Z,22.84
2023-09-05T20:20:13.296Z,22.58
2023-09-05T20:23:08.846Z,22.65
2023-09-05T20:26:04.416Z,22.65
2023-09-05T20:29:03.997Z,22.68
2023-09-05T20:31:59.533Z,22.76
2023-09-05T20:34:55.104Z,22.8
2023-09-05T20:37:51.661Z,22.86
2023-09-05T20:40:48.193Z,22.83
2023-09-05T20:43:43.770Z,22.79
2023-09-05T20:46:41.382Z,22.73
2023-09-05T20:49:36.898Z,22.72
2023-09-05T20:52:32.426Z,22.28
2023-09-05T20:55:28.009Z,22.3
2023-09-05T20:58:26.791Z,22.46
2023-09-05T21:01:26.176Z,22.18
2023-09-05T21:04:21.866Z,22.08
2023-09-05T21:07:17.296Z,21.8
2023-09-05T21:10:12.790Z,21.28
2023-09-05T21:13:11.400Z,21.67
2023-09-05T21:16:08.932Z,21.85
2023-09-05T21:19:04.576Z,21.76
2023-09-05T21:22:05.030Z,21.61
2023-09-05T21:25:02.596Z,21.61
2023-09-05T21:27:58.146Z,21.57
2023-09-05T21:30:53.822Z,21.85
2023-09-05T21:33:49.352Z,21.97
2023-09-05T21:36:46.865Z,22.04
2023-09-05T21:39:42.437Z,22.26
2023-09-05T21:42:38.742Z,22.25
2023-09-05T21:45:36.525Z,22.35
2023-09-05T21:48:33.109Z,22.06
2023-09-05T21:51:28.629Z,21.96
2023-09-05T21:54:25.229Z,22
2023-09-05T21:57:20.757Z,22.17
2023-09-05T22:00:31.343Z,21.87
2023-09-05T22:03:27.920Z,21.99
2023-09-05T22:06:23.455Z,22.17
2023-09-05T22:09:20.972Z,21.88
2023-09-05T22:12:16.575Z,21.78
2023-09-05T22:15:13.090Z,21.76
2023-09-05T22:18:09.770Z,21.77
2023-09-05T22:21:05.173Z,21.98
2023-09-05T22:24:00.772Z,21.69
2023-09-05T22:26:59.287Z,21.82
2023-09-05T22:29:57.868Z,21.87
2023-09-05T22:32:56.484Z,21.56
2023-09-05T22:35:52.971Z,21.65
2023-09-05T22:38:51.517Z,21.76
2023-09-05T22:41:49.147Z,21.68
2023-09-05T22:44:44.632Z,21.52
2023-09-05T22:47:42.334Z,21.35
2023-09-05T22:50:40.760Z,21.06
2023-09-05T22:53:38.282Z,20.89
2023-09-05T22:56:40.868Z,20.78
2023-09-05T22:59:37.419Z,20.99
2023-09-05T23:02:33.100Z,20.83
2023-09-05T23:05:28.546Z,21.18
2023-09-05T23:08:24.108Z,21.52
2023-09-05T23:11:20.657Z,21.17
2023-09-05T23:14:18.215Z,21.18
2023-09-05T23:17:13.871Z,21.26
2023-09-05T23:20:13.453Z,21.25
2023-09-05T23:23:08.871Z,21.17
2023-09-05T23:26:09.448Z,20.9
2023-09-05T23:29:06.062Z,20.98
2023-09-05T23:32:03.566Z,21.05
2023-09-05T23:35:00.145Z,20.99
2023-09-05T23:37:55.669Z,21.07
2023-09-05T23:40:52.248Z,21.01
2023-09-05T23:43:47.767Z,20.95
2023-09-05T23:46:45.429Z,21.3
2023-09-05T23:49:42.924Z,21.21
2023-09-05T23:52:39.494Z,21.01
2023-09-05T23:55:38.014Z,21.19
2023-09-05T23:58:34.624Z,21
